createdAt,value
2024-04-16T00:00:41.835Z,9.43
2024-04-16T00:01:46.789Z,9.44
2024-04-16T00:02:49.033Z,9.43
2024-04-16T00:03:51.487Z,9.41
2024-04-16T00:04:56.414Z,9.41
2024-04-16T00:06:01.511Z,9.40
2024-04-16T00:07:03.931Z,9.39
2024-04-16T00:08:09.099Z,9.38
2024-04-16T00:09:11.659Z,9.38
2024-04-16T00:10:14.349Z,9.41
2024-04-16T00:11:16.659Z,9.40
2024-04-16T00:12:21.750Z,9.40
2024-04-16T00:13:44.144Z,9.43
2024-04-16T00:14:59.408Z,9.45
2024-04-16T00:16:06.270Z,9.48
2024-04-16T00:17:10.319Z,9.48
2024-04-16T00:18:12.725Z,9.51
2024-04-16T00:19:15.128Z,9.52
2024-04-16T00:20:20.436Z,9.53
2024-04-16T00:21:25.704Z,9.54
2024-04-16T00:22:28.438Z,9.54
2024-04-16T00:23:30.897Z,9.54
2024-04-16T00:24:35.883Z,9.53
2024-04-16T00:25:38.167Z,9.53
2024-04-16T00:26:40.670Z,9.52
2024-04-16T00:27:43.706Z,9.51
2024-04-16T00:28:48.896Z,9.52
2024-04-16T00:29:51.094Z,9.52
2024-04-16T00:30:53.291Z,9.54
2024-04-16T00:31:55.467Z,9.56
2024-04-16T00:33:07.789Z,9.58
2024-04-16T00:34:09.983Z,9.60
2024-04-16T00:35:12.403Z,9.61
2024-04-16T00:36:14.448Z,9.64
2024-04-16T00:37:23.537Z,9.68
2024-04-16T00:38:25.890Z,9.68
2024-04-16T00:39:28.112Z,9.71
2024-04-16T00:40:30.296Z,9.72
2024-04-16T00:41:35.206Z,9.75
2024-04-16T00:42:37.536Z,9.78
2024-04-16T00:43:39.952Z,9.80
2024-04-16T00:44:45.296Z,9.81
2024-04-16T00:45:50.848Z,9.84
2024-04-16T00:46:52.932Z,9.86
2024-04-16T00:47:55.571Z,9.86
2024-04-16T00:49:00.606Z,9.87
2024-04-16T00:50:03.246Z,9.87
2024-04-16T00:51:05.917Z,9.87
2024-04-16T00:52:08.155Z,9.88
2024-04-16T00:53:16.229Z,9.89
2024-04-16T00:54:18.688Z,9.90
2024-04-16T00:55:21.246Z,9.91
2024-04-16T00:56:23.884Z,9.92
2024-04-16T00:57:28.984Z,9.93
2024-04-16T00:58:33.386Z,9.94
2024-04-16T00:59:35.885Z,9.94
2024-04-16T01:00:37.988Z,9.95
2024-04-16T01:01:43.424Z,9.95
2024-04-16T01:02:45.700Z,9.95
2024-04-16T01:03:47.755Z,9.95
2024-04-16T01:04:50.013Z,9.95
2024-04-16T01:05:58.165Z,9.95
2024-04-16T01:07:00.930Z,9.97
2024-04-16T01:08:03.488Z,9.98
2024-04-16T01:09:11.472Z,10.02
2024-04-16T01:10:17.353Z,10.02
2024-04-16T01:11:23.830Z,10.03
2024-04-16T01:12:26.028Z,10.05
2024-04-16T01:13:28.426Z,10.08
2024-04-16T01:14:33.335Z,10.10
2024-04-16T01:15:35.576Z,10.12
2024-04-16T01:16:37.892Z,10.12
2024-04-16T01:17:41.407Z,10.15
2024-04-16T01:18:46.801Z,10.19
2024-04-16T01:19:49.025Z,10.24
2024-04-16T01:20:51.591Z,10.27
2024-04-16T01:21:53.799Z,10.29
2024-04-16T01:23:01.471Z,10.30
2024-04-16T01:24:03.712Z,10.30
2024-04-16T01:25:06.494Z,10.30
2024-04-16T01:26:08.703Z,10.31
2024-04-16T01:27:13.348Z,10.32
2024-04-16T01:28:15.565Z,10.34
2024-04-16T01:29:17.812Z,10.36
2024-04-16T01:30:22.589Z,10.34
2024-04-16T01:31:25.052Z,10.34
2024-04-16T01:32:27.419Z,10.33
2024-04-16T01:33:32.484Z,10.32
2024-04-16T01:34:35.503Z,10.30
2024-04-16T01:35:37.648Z,10.30
2024-04-16T01:36:42.474Z,10.30
2024-04-16T01:37:44.534Z,10.29
2024-04-16T01:38:49.415Z,10.28
2024-04-16T01:39:54.410Z,10.27
2024-04-16T01:40:56.818Z,10.27
2024-04-16T01:41:59.001Z,10.29
2024-04-16T01:43:03.776Z,10.28
2024-04-16T01:44:06.032Z,10.28
2024-04-16T01:45:10.526Z,10.25
2024-04-16T01:46:15.543Z,10.26
2024-04-16T01:47:17.976Z,10.26
2024-04-16T01:48:20.227Z,10.26
2024-04-16T01:49:22.448Z,10.28
2024-04-16T01:50:27.304Z,10.27
2024-04-16T01:51:29.559Z,10.29
2024-04-16T01:52:31.856Z,10.30
2024-04-16T01:53:37.430Z,10.28
2024-04-16T01:54:42.210Z,10.29
2024-04-16T01:55:44.388Z,10.27
2024-04-16T01:56:47.088Z,10.27
2024-04-16T01:57:52.756Z,10.26
2024-04-16T01:58:55.024Z,10.25
2024-04-16T01:59:57.207Z,10.23
2024-04-16T02:01:00.256Z,10.20
2024-04-16T02:02:05.951Z,10.19
2024-04-16T02:03:08.473Z,10.18
2024-04-16T02:04:10.986Z,10.19
2024-04-16T02:05:14.011Z,10.21
2024-04-16T02:06:19.122Z,10.24
2024-04-16T02:07:21.523Z,10.26
2024-04-16T02:08:24.102Z,10.29
2024-04-16T02:09:26.298Z,10.34
2024-04-16T02:10:33.874Z,10.39
2024-04-16T02:11:36.000Z,10.44
2024-04-16T02:12:38.113Z,10.49
2024-04-16T02:13:42.954Z,10.53
2024-04-16T02:14:45.627Z,10.59
2024-04-16T02:15:47.798Z,10.65
2024-04-16T02:16:52.867Z,10.69
2024-04-16T02:17:55.376Z,10.73
2024-04-16T02:18:57.680Z,10.78
2024-04-16T02:19:59.896Z,10.82
2024-04-16T02:21:04.709Z,10.87
2024-04-16T02:22:06.828Z,10.90
2024-04-16T02:23:09.447Z,10.93
2024-04-16T02:24:11.538Z,10.94
2024-04-16T02:25:13.676Z,10.95
2024-04-16T02:26:21.097Z,10.97
2024-04-16T02:27:23.358Z,10.95
2024-04-16T02:28:25.599Z,10.94
2024-04-16T02:29:31.248Z,10.91
2024-04-16T02:30:35.099Z,10.88
2024-04-16T02:31:37.308Z,10.86
2024-04-16T02:32:39.803Z,10.83
2024-04-16T02:33:44.764Z,10.83
2024-04-16T02:34:46.911Z,10.81
2024-04-16T02:35:49.108Z,10.78
2024-04-16T02:36:51.224Z,10.76
2024-04-16T02:37:56.471Z,10.74
2024-04-16T02:38:58.751Z,10.72
2024-04-16T02:40:01.000Z,10.70
2024-04-16T02:41:03.329Z,10.66
2024-04-16T02:42:10.810Z,10.63
2024-04-16T02:43:12.985Z,10.59
2024-04-16T02:44:15.102Z,10.53
2024-04-16T02:45:17.427Z,10.49
2024-04-16T02:46:22.730Z,10.47
2024-04-16T02:47:24.924Z,10.44
2024-04-16T02:48:27.165Z,10.43
2024-04-16T02:49:29.501Z,10.39
2024-04-16T02:50:31.730Z,10.37
2024-04-16T02:51:36.491Z,10.35
2024-04-16T02:52:38.806Z,10.33
2024-04-16T02:53:41.056Z,10.30
2024-04-16T02:54:43.349Z,10.27
2024-04-16T02:55:48.070Z,10.23
2024-04-16T02:56:50.318Z,10.17
2024-04-16T02:57:55.042Z,10.14
2024-04-16T02:58:57.207Z,10.13
2024-04-16T03:00:01.947Z,10.10
2024-04-16T03:01:05.477Z,10.09
2024-04-16T03:02:08.200Z,10.06
2024-04-16T03:03:12.027Z,10.03
2024-04-16T03:04:16.887Z,10.03
2024-04-16T03:05:19.393Z,10.00
2024-04-16T03:06:21.618Z,9.97
2024-04-16T03:07:24.134Z,9.92
2024-04-16T03:08:28.947Z,9.90
2024-04-16T03:09:30.943Z,9.85
2024-04-16T03:10:33.232Z,9.82
2024-04-16T03:11:38.120Z,9.78
2024-04-16T03:12:40.147Z,9.75
2024-04-16T03:13:45.594Z,9.72
2024-04-16T03:14:47.782Z,9.67
2024-04-16T03:15:52.531Z,9.64
2024-04-16T03:16:54.762Z,9.61
2024-04-16T03:17:57.008Z,9.59
2024-04-16T03:19:00.439Z,9.57
2024-04-16T03:20:05.485Z,9.52
2024-04-16T03:21:07.676Z,9.50
2024-04-16T03:22:10.678Z,9.46
2024-04-16T03:23:13.033Z,9.43
2024-04-16T03:24:17.811Z,9.41
2024-04-16T03:25:20.121Z,9.36
2024-04-16T03:26:22.306Z,9.34
2024-04-16T03:27:24.440Z,9.32
2024-04-16T03:28:29.189Z,9.31
2024-04-16T03:29:33.872Z,9.28
2024-04-16T03:30:36.121Z,9.24
2024-04-16T03:31:38.820Z,9.21
2024-04-16T03:32:43.689Z,9.18
2024-04-16T03:33:45.795Z,9.15
2024-04-16T03:34:47.930Z,9.12
2024-04-16T03:35:56.470Z,9.09
2024-04-16T03:37:02.008Z,9.08
2024-04-16T03:38:04.639Z,9.08
2024-04-16T03:39:06.852Z,9.07
2024-04-16T03:40:13.111Z,9.07
2024-04-16T03:41:15.356Z,9.06
2024-04-16T03:42:17.597Z,9.05
2024-04-16T03:43:22.373Z,9.06
2024-04-16T03:44:24.577Z,9.06
2024-04-16T03:45:29.425Z,9.07
2024-04-16T03:46:34.321Z,9.07
2024-04-16T03:47:36.602Z,9.08
2024-04-16T03:48:38.850Z,9.10
2024-04-16T03:49:43.650Z,9.12
2024-04-16T03:50:45.881Z,9.13
2024-04-16T03:51:48.021Z,9.15
2024-04-16T03:52:50.156Z,9.18
2024-04-16T03:53:55.137Z,9.24
2024-04-16T03:54:57.484Z,9.28
2024-04-16T03:56:01.334Z,9.31
2024-04-16T03:57:04.165Z,9.34
2024-04-16T03:58:09.522Z,9.34
2024-04-16T03:59:26.776Z,9.35
2024-04-16T04:00:50.215Z,9.32
2024-04-16T04:01:55.009Z,9.29
2024-04-16T04:03:00.656Z,9.25
2024-04-16T04:04:02.964Z,9.20
2024-04-16T04:05:08.475Z,9.14
2024-04-16T04:06:11.572Z,9.10
2024-04-16T04:07:13.875Z,9.06
2024-04-16T04:08:18.989Z,9.01
2024-04-16T04:09:21.696Z,8.97
2024-04-16T04:10:23.884Z,8.92
2024-04-16T04:11:26.556Z,8.86
2024-04-16T04:12:31.559Z,8.83
2024-04-16T04:13:33.928Z,8.77
2024-04-16T04:14:36.325Z,8.73
2024-04-16T04:15:43.609Z,8.69
2024-04-16T04:17:13.545Z,8.64
2024-04-16T04:18:15.921Z,8.60
2024-04-16T04:19:21.540Z,8.55
2024-04-16T04:20:23.833Z,8.51
2024-04-16T04:21:28.934Z,8.47
2024-04-16T04:22:34.410Z,8.46
2024-04-16T04:23:36.693Z,8.43
2024-04-16T04:24:43.473Z,8.38
2024-04-16T04:26:14.492Z,8.35
2024-04-16T04:27:56.225Z,8.35
2024-04-16T04:28:58.397Z,8.33
2024-04-16T04:30:00.939Z,8.30
2024-04-16T04:31:17.901Z,8.28
2024-04-16T04:33:39.033Z,8.22
2024-04-16T04:34:42.828Z,8.21
2024-04-16T04:35:47.706Z,8.18
2024-04-16T04:36:53.211Z,8.16
2024-04-16T04:38:02.724Z,8.14
2024-04-16T04:39:07.756Z,8.12
2024-04-16T04:40:12.474Z,8.12
2024-04-16T04:41:14.832Z,8.11
2024-04-16T04:42:17.296Z,8.10
2024-04-16T04:43:22.237Z,8.10
2024-04-16T04:44:27.506Z,8.09
2024-04-16T04:45:29.897Z,8.07
2024-04-16T04:46:37.376Z,8.05
2024-04-16T04:47:39.835Z,7.99
2024-04-16T04:48:42.432Z,7.96
2024-04-16T04:49:44.945Z,7.94
2024-04-16T04:50:49.839Z,7.88
2024-04-16T04:51:52.180Z,7.87
2024-04-16T04:52:54.581Z,7.86
2024-04-16T04:53:56.776Z,7.81
2024-04-16T04:55:07.503Z,7.80
2024-04-16T04:56:12.448Z,7.78
2024-04-16T04:57:14.626Z,7.78
2024-04-16T04:58:16.890Z,7.77
2024-04-16T04:59:21.997Z,7.73
2024-04-16T05:00:24.288Z,7.75
2024-04-16T05:01:26.926Z,7.75
2024-04-16T05:02:34.524Z,7.75
2024-04-16T05:03:36.997Z,7.74
2024-04-16T05:04:40.731Z,7.73
2024-04-16T05:05:46.665Z,7.70
2024-04-16T05:06:51.547Z,7.69
2024-04-16T05:07:53.847Z,7.69
2024-04-16T05:08:56.506Z,7.69
2024-04-16T05:09:58.765Z,7.69
2024-04-16T05:11:03.652Z,7.66
2024-04-16T05:12:06.156Z,7.65
2024-04-16T05:13:08.244Z,7.65
2024-04-16T05:14:12.691Z,7.61
2024-04-16T05:15:21.254Z,7.61
2024-04-16T05:16:24.307Z,7.59
2024-04-16T05:17:27.671Z,7.57
2024-04-16T05:18:33.550Z,7.52
2024-04-16T05:19:38.887Z,7.53
2024-04-16T05:20:41.257Z,7.54
2024-04-16T05:21:43.624Z,7.52
2024-04-16T05:23:08.090Z,7.53
2024-04-16T05:24:16.854Z,7.51
2024-04-16T05:25:18.988Z,7.49
2024-04-16T05:26:28.162Z,7.48
2024-04-16T05:27:32.602Z,7.47
2024-04-16T05:28:35.045Z,7.45
2024-04-16T05:29:39.971Z,7.39
2024-04-16T05:30:42.310Z,7.34
2024-04-16T05:31:44.649Z,7.31
2024-04-16T05:32:49.779Z,7.27
2024-04-16T05:33:55.538Z,7.23
2024-04-16T05:34:57.884Z,7.22
2024-04-16T05:36:05.436Z,7.20
2024-04-16T05:37:12.233Z,7.17
2024-04-16T05:38:14.865Z,7.14
2024-04-16T05:39:17.360Z,7.09
2024-04-16T05:40:22.113Z,7.07
2024-04-16T05:41:27.444Z,7.03
2024-04-16T05:42:30.125Z,7.01
2024-04-16T05:43:36.289Z,6.97
2024-04-16T05:44:38.719Z,6.93
2024-04-16T05:45:41.554Z,6.92
2024-04-16T05:46:45.760Z,6.91
2024-04-16T05:47:51.272Z,6.88
2024-04-16T05:49:00.159Z,6.84
2024-04-16T05:50:08.367Z,6.85
2024-04-16T05:51:10.813Z,6.86
2024-04-16T05:52:15.943Z,6.90
2024-04-16T05:53:51.894Z,7.02
2024-04-16T05:54:54.699Z,7.12
2024-04-16T05:55:59.654Z,7.18
2024-04-16T05:57:08.205Z,7.20
2024-04-16T05:58:31.796Z,7.20
2024-04-16T05:59:37.639Z,7.18
2024-04-16T06:00:40.003Z,7.16
2024-04-16T06:01:45.192Z,7.13
2024-04-16T06:02:47.489Z,7.06
2024-04-16T06:03:52.269Z,7.02
2024-04-16T06:04:57.312Z,6.95
2024-04-16T06:06:02.100Z,6.87
2024-04-16T06:07:07.501Z,6.86
2024-04-16T06:08:12.850Z,6.82
2024-04-16T06:09:15.022Z,6.84
2024-04-16T06:10:20.002Z,6.85
2024-04-16T06:11:25.192Z,6.84
2024-04-16T06:14:14.813Z,6.78
2024-04-16T06:15:20.817Z,6.74
2024-04-16T06:16:23.093Z,6.72
2024-04-16T06:17:25.306Z,6.69
2024-04-16T06:18:35.609Z,6.66
2024-04-16T06:19:38.864Z,6.60
2024-04-16T06:20:44.134Z,6.56
2024-04-16T06:22:12.687Z,6.53
2024-04-16T06:23:23.444Z,6.48
2024-04-16T06:24:25.819Z,6.45
2024-04-16T06:25:28.386Z,6.43
2024-04-16T06:26:34.815Z,6.40
2024-04-16T06:27:37.111Z,6.39
2024-04-16T06:28:39.475Z,6.38
2024-04-16T06:29:44.622Z,6.39
2024-04-16T06:30:47.636Z,6.41
2024-04-16T06:31:50.191Z,6.42
2024-04-16T06:32:58.320Z,6.49
2024-04-16T06:34:02.625Z,6.61
2024-04-16T06:35:05.901Z,6.74
2024-04-16T06:36:13.985Z,6.94
2024-04-16T06:37:18.550Z,7.15
2024-04-16T06:39:00.630Z,7.45
2024-04-16T06:40:05.681Z,7.55
2024-04-16T06:41:08.207Z,7.66
2024-04-16T06:42:14.787Z,7.68
2024-04-16T06:43:18.968Z,7.74
2024-04-16T06:44:26.443Z,7.76
2024-04-16T06:45:28.630Z,7.77
2024-04-16T06:46:30.936Z,7.78
2024-04-16T06:47:36.118Z,7.75
2024-04-16T06:48:39.301Z,7.70
2024-04-16T06:49:41.876Z,7.66
2024-04-16T06:50:49.507Z,7.61
2024-04-16T06:51:54.936Z,7.58
2024-04-16T06:53:11.076Z,7.56
2024-04-16T06:54:16.070Z,7.57
2024-04-16T06:55:21.054Z,7.55
2024-04-16T06:56:23.311Z,7.50
2024-04-16T06:57:25.682Z,7.47
2024-04-16T06:58:28.150Z,7.45
2024-04-16T06:59:33.329Z,7.48
2024-04-16T07:00:38.160Z,7.53
2024-04-16T07:03:43.982Z,7.76
2024-04-16T07:04:47.038Z,7.79
2024-04-16T07:05:49.455Z,7.86
2024-04-16T07:07:00.680Z,7.94
2024-04-16T07:08:04.718Z,8.06
2024-04-16T07:09:09.183Z,8.16
2024-04-16T07:10:12.412Z,8.29
2024-04-16T07:11:18.117Z,8.42
2024-04-16T07:12:20.319Z,8.49
2024-04-16T07:13:22.445Z,8.55
2024-04-16T07:14:24.702Z,8.56
2024-04-16T07:15:46.690Z,8.54
2024-04-16T07:16:49.132Z,8.54
2024-04-16T07:17:51.900Z,8.60
2024-04-16T07:19:12.839Z,8.85
2024-04-16T07:20:18.691Z,9.17
2024-04-16T07:21:31.021Z,9.39
2024-04-16T07:22:42.509Z,9.52
2024-04-16T07:23:44.786Z,9.57
2024-04-16T07:24:56.208Z,9.66
2024-04-16T07:26:07.537Z,9.65
2024-04-16T07:27:09.999Z,9.76
2024-04-16T07:28:14.475Z,10.02
2024-04-16T07:29:22.756Z,10.34
2024-04-16T07:30:35.819Z,10.65
2024-04-16T07:31:44.814Z,10.88
2024-04-16T07:32:52.736Z,11.07
2024-04-16T07:33:55.692Z,11.08
2024-04-16T07:34:58.475Z,10.92
2024-04-16T07:36:00.950Z,10.77
2024-04-16T07:37:05.817Z,10.61
2024-04-16T07:38:10.647Z,10.48
2024-04-16T07:39:12.866Z,10.41
2024-04-16T07:40:17.930Z,10.39
2024-04-16T07:41:20.829Z,10.44
2024-04-16T07:42:23.120Z,10.44
2024-04-16T07:43:25.449Z,10.33
2024-04-16T07:44:30.368Z,10.19
2024-04-16T07:45:32.593Z,10.03
2024-04-16T07:46:35.061Z,9.84
2024-04-16T07:47:37.976Z,9.63
2024-04-16T07:48:43.229Z,9.48
2024-04-16T07:49:45.414Z,9.34
2024-04-16T07:50:50.024Z,9.22
2024-04-16T07:51:59.734Z,9.10
2024-04-16T07:53:07.950Z,9.02
2024-04-16T07:54:12.813Z,9.00
2024-04-16T07:55:17.561Z,9.00
2024-04-16T07:56:27.133Z,9.02
2024-04-16T07:57:32.037Z,9.06
2024-04-16T07:58:34.409Z,9.09
2024-04-16T07:59:36.850Z,9.13
2024-04-16T08:00:40.995Z,9.17
2024-04-16T08:01:46.059Z,9.23
2024-04-16T08:02:48.772Z,9.20
2024-04-16T08:03:59.916Z,9.21
2024-04-16T08:05:07.879Z,9.23
2024-04-16T08:06:14.936Z,9.20
2024-04-16T08:07:17.137Z,9.08
2024-04-16T08:08:26.288Z,9.00
2024-04-16T08:09:41.584Z,8.93
2024-04-16T08:10:44.021Z,8.91
2024-04-16T08:11:46.239Z,8.87
2024-04-16T08:12:51.060Z,8.83
2024-04-16T08:13:54.685Z,8.84
2024-04-16T08:14:56.884Z,8.85
2024-04-16T08:15:59.301Z,8.91
2024-04-16T08:17:05.155Z,8.95
2024-04-16T08:18:07.858Z,8.94
2024-04-16T08:19:10.083Z,8.93
2024-04-16T08:20:16.725Z,8.98
2024-04-16T08:21:19.592Z,9.05
2024-04-16T08:22:21.960Z,9.13
2024-04-16T08:23:24.256Z,9.15
2024-04-16T08:24:33.085Z,9.16
2024-04-16T08:25:37.999Z,9.20
2024-04-16T08:26:40.738Z,9.22
2024-04-16T08:27:43.298Z,9.23
2024-04-16T08:28:49.392Z,9.22
2024-04-16T08:29:53.168Z,9.20
2024-04-16T08:30:55.702Z,9.18
2024-04-16T08:32:00.563Z,9.20
2024-04-16T08:33:02.768Z,9.17
2024-04-16T08:34:06.199Z,9.14
2024-04-16T08:35:15.834Z,9.08
2024-04-16T08:36:18.403Z,9.06
2024-04-16T08:37:20.699Z,9.03
2024-04-16T08:38:23.015Z,8.97
2024-04-16T08:39:27.908Z,8.90
2024-04-16T08:40:30.367Z,8.84
2024-04-16T08:41:36.679Z,8.77
2024-04-16T08:42:41.435Z,8.72
2024-04-16T08:43:43.741Z,8.65
2024-04-16T08:44:46.348Z,8.60
2024-04-16T08:45:48.699Z,8.56
2024-04-16T08:46:54.305Z,8.45
2024-04-16T08:47:57.749Z,8.34
2024-04-16T08:49:00.998Z,8.25
2024-04-16T08:50:07.929Z,8.17
2024-04-16T08:51:10.258Z,8.08
2024-04-16T08:52:12.693Z,8.02
2024-04-16T08:53:15.053Z,7.98
2024-04-16T08:54:20.648Z,7.95
2024-04-16T08:55:23.438Z,7.95
2024-04-16T08:56:26.728Z,7.96
2024-04-16T08:57:31.711Z,7.95
2024-04-16T08:58:36.767Z,7.97
2024-04-16T08:59:38.940Z,7.98
2024-04-16T09:00:41.616Z,7.99
2024-04-16T09:01:46.921Z,8.00
2024-04-16T09:02:51.792Z,8.02
2024-04-16T09:03:57.485Z,8.00
2024-04-16T09:05:00.648Z,8.00
2024-04-16T09:06:04.898Z,7.97
2024-04-16T09:07:11.331Z,7.96
2024-04-16T09:08:13.969Z,7.98
2024-04-16T09:09:16.186Z,7.99
2024-04-16T09:10:21.091Z,7.98
2024-04-16T09:11:26.313Z,8.02
2024-04-16T09:12:31.759Z,8.06
2024-04-16T09:13:41.163Z,8.12
2024-04-16T09:14:43.512Z,8.18
2024-04-16T09:15:48.384Z,8.26
2024-04-16T09:16:50.691Z,8.39
2024-04-16T09:17:56.721Z,8.52
2024-04-16T09:19:09.617Z,8.71
2024-04-16T09:20:15.327Z,8.86
2024-04-16T09:21:17.920Z,8.97
2024-04-16T09:22:26.073Z,9.05
2024-04-16T09:23:28.534Z,9.16
2024-04-16T09:24:30.812Z,9.28
2024-04-16T09:25:35.992Z,9.34
2024-04-16T09:26:40.694Z,9.33
2024-04-16T09:27:47.116Z,9.28
2024-04-16T09:28:50.335Z,9.26
2024-04-16T09:29:57.934Z,9.17
2024-04-16T09:31:00.600Z,9.16
2024-04-16T09:32:04.434Z,9.14
2024-04-16T09:33:12.002Z,9.18
2024-04-16T09:34:15.905Z,9.25
2024-04-16T09:35:26.080Z,9.37
2024-04-16T09:36:28.421Z,9.49
2024-04-16T09:37:30.856Z,9.60
2024-04-16T09:38:45.520Z,9.69
2024-04-16T09:39:49.808Z,9.71
2024-04-16T09:40:53.774Z,9.67
2024-04-16T09:41:59.001Z,9.69
2024-04-16T09:43:06.202Z,9.71
2024-04-16T09:44:10.457Z,9.72
2024-04-16T09:45:15.765Z,9.68
2024-04-16T09:46:18.925Z,9.66
2024-04-16T09:47:22.106Z,9.64
2024-04-16T09:48:25.653Z,9.62
2024-04-16T09:49:36.838Z,9.64
2024-04-16T09:50:55.968Z,9.65
2024-04-16T09:52:03.354Z,9.67
2024-04-16T09:53:08.315Z,9.69
2024-04-16T09:54:13.363Z,9.73
2024-04-16T09:55:16.668Z,9.74
2024-04-16T09:56:24.913Z,9.74
2024-04-16T09:57:29.317Z,9.80
2024-04-16T09:58:35.186Z,9.84
2024-04-16T09:59:39.136Z,9.91
2024-04-16T10:00:44.167Z,9.95
2024-04-16T10:01:46.534Z,10.06
2024-04-16T10:02:49.290Z,10.17
2024-04-16T10:03:52.592Z,10.21
2024-04-16T10:04:57.766Z,10.25
2024-04-16T10:06:00.359Z,10.24
2024-04-16T10:07:02.741Z,10.23
2024-04-16T10:08:05.730Z,10.27
2024-04-16T10:09:10.827Z,10.31
2024-04-16T10:10:13.728Z,10.37
2024-04-16T10:11:22.346Z,10.45
2024-04-16T10:12:31.647Z,10.53
2024-04-16T10:13:42.179Z,10.50
2024-04-16T10:14:44.861Z,10.45
2024-04-16T10:15:47.346Z,10.40
2024-04-16T10:16:52.932Z,10.36
2024-04-16T10:17:57.569Z,10.29
2024-04-16T10:18:59.867Z,10.23
2024-04-16T10:20:13.951Z,10.17
2024-04-16T10:21:25.053Z,10.10
2024-04-16T10:22:44.639Z,10.01
2024-04-16T10:24:03.365Z,9.86
2024-04-16T10:25:06.324Z,9.77
2024-04-16T10:26:08.745Z,9.70
2024-04-16T10:27:10.993Z,9.60
2024-04-16T10:28:25.681Z,9.49
2024-04-16T10:29:34.070Z,9.40
2024-04-16T10:30:37.152Z,9.36
2024-04-16T10:31:40.532Z,9.34
2024-04-16T10:32:48.799Z,9.36
2024-04-16T10:33:51.105Z,9.38
2024-04-16T10:35:00.441Z,9.45
2024-04-16T10:36:08.503Z,9.52
2024-04-16T10:37:10.855Z,9.56
2024-04-16T10:38:13.274Z,9.60
2024-04-16T10:39:15.830Z,9.60
2024-04-16T10:40:29.751Z,9.64
2024-04-16T10:41:32.720Z,9.66
2024-04-16T10:42:37.469Z,9.70
2024-04-16T10:43:42.755Z,9.77
2024-04-16T10:44:48.234Z,9.84
2024-04-16T10:45:50.743Z,9.94
2024-04-16T10:46:54.997Z,10.07
2024-04-16T10:48:01.858Z,10.18
2024-04-16T10:49:04.649Z,10.31
2024-04-16T10:50:08.393Z,10.43
2024-04-16T10:51:12.758Z,10.58
2024-04-16T10:52:17.450Z,10.70
2024-04-16T10:53:20.942Z,10.84
2024-04-16T10:54:23.116Z,10.93
2024-04-16T10:55:28.176Z,10.93
2024-04-16T10:56:30.384Z,10.92
2024-04-16T10:57:32.520Z,10.90
2024-04-16T10:58:35.316Z,10.95
2024-04-16T10:59:48.615Z,10.91
2024-04-16T11:00:58.819Z,10.85
2024-04-16T11:02:02.519Z,10.93
2024-04-16T11:03:08.304Z,11.02
2024-04-16T11:04:12.058Z,11.06
2024-04-16T11:05:19.267Z,11.10
2024-04-16T11:06:24.516Z,11.15
2024-04-16T11:07:26.847Z,11.18
2024-04-16T11:08:29.104Z,11.23
2024-04-16T11:09:31.261Z,11.41
2024-04-16T11:10:36.520Z,11.59
2024-04-16T11:11:39.807Z,11.67
2024-04-16T11:12:42.128Z,11.76
2024-04-16T11:13:47.076Z,11.88
2024-04-16T11:14:49.364Z,12.02
2024-04-16T11:15:52.805Z,11.93
2024-04-16T11:17:00.312Z,12.01
2024-04-16T11:18:02.641Z,12.21
2024-04-16T11:19:04.904Z,12.33
2024-04-16T11:20:09.422Z,12.41
2024-04-16T11:21:14.433Z,12.42
2024-04-16T11:22:16.920Z,12.43
2024-04-16T11:23:19.335Z,12.49
2024-04-16T11:24:21.794Z,12.52
2024-04-16T11:25:38.802Z,12.62
2024-04-16T11:26:41.354Z,12.72
2024-04-16T11:27:44.219Z,12.91
2024-04-16T11:28:46.417Z,13.06
2024-04-16T11:29:51.380Z,13.14
2024-04-16T11:30:54.659Z,13.17
2024-04-16T11:31:59.652Z,13.06
2024-04-16T11:33:10.578Z,12.87
2024-04-16T11:34:19.765Z,12.64
2024-04-16T11:35:22.374Z,12.41
2024-04-16T11:36:24.524Z,12.31
2024-04-16T11:37:29.329Z,12.18
2024-04-16T11:38:31.562Z,12.01
2024-04-16T11:39:33.746Z,11.84
2024-04-16T11:40:39.547Z,11.75
2024-04-16T11:41:45.054Z,11.57
2024-04-16T11:42:47.225Z,11.38
2024-04-16T11:43:50.055Z,11.18
2024-04-16T11:44:55.747Z,11.12
2024-04-16T11:45:58.637Z,11.04
2024-04-16T11:47:03.545Z,11.00
2024-04-16T11:48:11.144Z,10.93
2024-04-16T11:49:16.051Z,10.85
2024-04-16T11:50:18.371Z,10.78
2024-04-16T11:51:20.531Z,10.74
2024-04-16T11:52:22.671Z,10.70
2024-04-16T11:53:31.583Z,10.65
2024-04-16T11:54:36.322Z,10.59
2024-04-16T11:55:39.370Z,10.59
2024-04-16T11:56:41.708Z,10.61
2024-04-16T11:57:46.998Z,10.65
2024-04-16T11:58:49.310Z,10.76
2024-04-16T11:59:53.112Z,10.94
2024-04-16T12:00:55.561Z,11.12
2024-04-16T12:02:00.798Z,11.27
2024-04-16T12:03:08.507Z,11.34
2024-04-16T12:04:11.541Z,11.35
2024-04-16T12:05:13.858Z,11.32
2024-04-16T12:06:18.834Z,11.34
2024-04-16T12:07:21.866Z,11.34
2024-04-16T12:08:24.761Z,11.27
2024-04-16T12:09:27.150Z,11.21
2024-04-16T12:10:34.407Z,11.11
2024-04-16T12:11:36.835Z,11.06
2024-04-16T12:12:39.175Z,11.03
2024-04-16T12:13:41.601Z,10.97
2024-04-16T12:14:47.109Z,10.93
2024-04-16T12:15:49.395Z,10.89
2024-04-16T12:16:51.998Z,10.86
2024-04-16T12:17:54.369Z,10.84
2024-04-16T12:19:01.925Z,10.83
2024-04-16T12:20:05.710Z,10.81
2024-04-16T12:21:08.803Z,10.77
2024-04-16T12:22:13.598Z,10.79
2024-04-16T12:23:15.773Z,10.86
2024-04-16T12:24:18.024Z,10.92
2024-04-16T12:25:20.077Z,10.98
2024-04-16T12:26:25.262Z,11.08
2024-04-16T12:27:28.818Z,11.16
2024-04-16T12:28:31.084Z,11.21
2024-04-16T12:29:33.388Z,11.23
2024-04-16T12:30:38.173Z,11.33
2024-04-16T12:31:40.332Z,11.50
2024-04-16T12:32:44.445Z,11.64
2024-04-16T12:33:52.232Z,11.80
2024-04-16T12:34:57.196Z,11.98
2024-04-16T12:35:59.602Z,12.11
2024-04-16T12:37:02.537Z,12.26
2024-04-16T12:38:08.485Z,12.37
2024-04-16T12:39:13.993Z,12.39
2024-04-16T12:40:18.032Z,12.39
2024-04-16T12:41:20.146Z,12.35
2024-04-16T12:42:25.204Z,12.29
2024-04-16T12:43:27.665Z,12.23
2024-04-16T12:44:29.831Z,12.21
2024-04-16T12:45:32.157Z,12.15
2024-04-16T12:46:37.226Z,11.98
2024-04-16T12:47:39.693Z,11.85
2024-04-16T12:48:43.669Z,11.76
2024-04-16T12:49:46.065Z,11.73
2024-04-16T12:50:54.187Z,11.81
2024-04-16T12:51:56.542Z,11.91
2024-04-16T12:52:58.929Z,11.98
2024-04-16T12:54:01.204Z,12.01
2024-04-16T12:55:06.555Z,12.04
2024-04-16T12:56:13.969Z,12.04
2024-04-16T12:57:16.291Z,11.98
2024-04-16T12:58:19.026Z,11.87
2024-04-16T12:59:23.892Z,11.81
2024-04-16T13:00:26.509Z,11.67
2024-04-16T13:01:28.771Z,11.60
2024-04-16T13:02:35.821Z,11.50
2024-04-16T13:03:38.705Z,11.43
2024-04-16T13:04:40.987Z,11.38
2024-04-16T13:05:45.726Z,11.37
2024-04-16T13:06:50.421Z,11.36
2024-04-16T13:07:56.507Z,11.38
2024-04-16T13:09:01.343Z,11.45
2024-04-16T13:10:04.139Z,11.60
2024-04-16T13:11:07.244Z,11.72
2024-04-16T13:12:12.412Z,11.67
2024-04-16T13:13:14.613Z,11.64
2024-04-16T13:14:16.863Z,11.56
2024-04-16T13:15:22.039Z,11.47
2024-04-16T13:16:27.113Z,11.41
2024-04-16T13:17:29.345Z,11.33
2024-04-16T13:18:35.465Z,11.29
2024-04-16T13:19:37.846Z,11.29
2024-04-16T13:20:40.106Z,11.28
2024-04-16T13:21:44.988Z,11.28
2024-04-16T13:22:50.256Z,11.25
2024-04-16T13:23:55.017Z,11.27
2024-04-16T13:24:57.212Z,11.27
2024-04-16T13:26:02.129Z,11.30
2024-04-16T13:27:05.115Z,11.33
2024-04-16T13:28:07.538Z,11.36
2024-04-16T13:29:12.495Z,11.40
2024-04-16T13:30:14.994Z,11.48
2024-04-16T13:31:19.113Z,11.51
2024-04-16T13:32:21.654Z,11.58
2024-04-16T13:33:26.820Z,11.68
2024-04-16T13:34:29.038Z,11.75
2024-04-16T13:35:31.224Z,11.83
2024-04-16T13:36:35.984Z,11.79
2024-04-16T13:37:38.321Z,11.71
2024-04-16T13:38:43.187Z,11.59
2024-04-16T13:39:45.763Z,11.45
2024-04-16T13:40:50.957Z,11.38
2024-04-16T13:41:53.452Z,11.33
2024-04-16T13:42:55.727Z,11.32
2024-04-16T13:44:00.453Z,11.32
2024-04-16T13:45:02.782Z,11.25
2024-04-16T13:46:05.346Z,11.16
2024-04-16T13:47:07.682Z,11.11
2024-04-16T13:48:13.363Z,11.01
2024-04-16T13:49:15.689Z,10.87
2024-04-16T13:50:17.859Z,10.80
2024-04-16T13:51:22.731Z,10.74
2024-04-16T13:52:26.086Z,10.64
2024-04-16T13:53:28.620Z,10.53
2024-04-16T13:54:36.106Z,10.47
2024-04-16T13:55:38.483Z,10.41
2024-04-16T13:56:41.070Z,10.42
2024-04-16T13:57:43.391Z,10.43
2024-04-16T13:58:48.374Z,10.56
2024-04-16T13:59:51.159Z,10.69
2024-04-16T14:00:53.364Z,10.74
2024-04-16T14:01:59.346Z,10.77
2024-04-16T14:03:01.739Z,10.81
2024-04-16T14:04:04.060Z,10.72
2024-04-16T14:05:09.155Z,10.67
2024-04-16T14:06:11.324Z,10.62
2024-04-16T14:07:13.658Z,10.58
2024-04-16T14:08:18.527Z,10.57
2024-04-16T14:09:24.450Z,10.58
2024-04-16T14:10:30.535Z,10.55
2024-04-16T14:11:35.516Z,10.60
2024-04-16T14:12:38.381Z,10.61
2024-04-16T14:13:41.179Z,10.62